createdAt,value
2019-02-14T00:00:44.511Z,18.05
2019-02-14T00:03:13.241Z,18.13
2019-02-14T00:05:42.076Z,16.57
2019-02-14T00:08:10.821Z,16.13
2019-02-14T00:10:40.902Z,16.87
2019-02-14T00:13:09.746Z,16.52
2019-02-14T00:15:38.581Z,16.32
2019-02-14T00:18:07.362Z,17.77
2019-02-14T00:20:36.113Z,16.95
2019-02-14T00:23:04.896Z,16.27
2019-02-14T00:25:33.621Z,15.95
2019-02-14T00:28:02.394Z,16.00
2019-02-14T00:30:31.137Z,15.80
2019-02-14T00:33:00.046Z,15.78
2019-02-14T00:35:28.876Z,16.07
2019-02-14T00:37:57.696Z,15.75
2019-02-14T00:40:26.775Z,15.72
2019-02-14T00:42:55.729Z,15.38
2019-02-14T00:45:24.544Z,15.40
2019-02-14T00:47:53.472Z,15.55
2019-02-14T00:50:22.326Z,15.93
2019-02-14T00:52:51.165Z,15.80
2019-02-14T00:55:19.901Z,14.60
2019-02-14T00:57:50.041Z,14.33
2019-02-14T01:00:18.852Z,13.90
2019-02-14T01:02:47.626Z,14.03
2019-02-14T01:05:16.590Z,14.35
2019-02-14T01:07:45.447Z,14.55
2019-02-14T01:10:14.213Z,14.20
2019-02-14T01:12:43.032Z,13.68
2019-02-14T01:15:11.868Z,13.70
2019-02-14T01:17:40.609Z,14.00
2019-02-14T01:20:09.557Z,13.55
2019-02-14T01:22:38.365Z,13.65
2019-02-14T01:25:07.744Z,13.78
2019-02-14T01:27:36.497Z,12.85
2019-02-14T01:30:08.209Z,13.00
2019-02-14T01:32:37.017Z,13.13
2019-02-14T01:35:08.530Z,12.90
2019-02-14T01:37:37.265Z,12.68
2019-02-14T01:40:07.237Z,12.00
2019-02-14T01:42:37.761Z,12.47
2019-02-14T01:45:10.001Z,11.50
2019-02-14T01:47:38.793Z,11.38
2019-02-14T01:50:10.450Z,11.35
2019-02-14T01:52:39.269Z,11.10
2019-02-14T01:55:08.005Z,11.68
2019-02-14T01:57:36.778Z,11.50
2019-02-14T02:00:10.160Z,11.28
2019-02-14T02:02:39.015Z,11.65
2019-02-14T02:05:07.984Z,11.70
2019-02-14T02:07:36.816Z,12.25
2019-02-14T02:10:10.973Z,12.07
2019-02-14T02:12:41.864Z,12.28
2019-02-14T02:15:14.423Z,12.73
2019-02-14T02:17:43.193Z,12.40
2019-02-14T02:20:12.801Z,12.45
2019-02-14T02:22:41.637Z,12.07
2019-02-14T02:25:12.046Z,11.70
2019-02-14T02:27:40.817Z,11.65
2019-02-14T02:30:12.226Z,11.65
2019-02-14T02:32:42.633Z,11.90
2019-02-14T02:35:11.463Z,11.38
2019-02-14T02:37:40.229Z,10.95
2019-02-14T02:40:09.813Z,11.10
2019-02-14T02:42:38.672Z,11.55
2019-02-14T02:45:12.145Z,10.93
2019-02-14T02:47:40.958Z,10.43
2019-02-14T02:50:12.288Z,11.10
2019-02-14T02:52:41.152Z,10.72
2019-02-14T02:55:10.740Z,10.65
2019-02-14T02:57:39.534Z,10.48
2019-02-14T03:00:17.082Z,10.72
2019-02-14T03:02:45.980Z,10.15
2019-02-14T03:05:15.845Z,10.65
2019-02-14T03:07:44.633Z,10.65
2019-02-14T03:10:14.312Z,10.13
2019-02-14T03:12:43.057Z,10.55
2019-02-14T03:15:13.725Z,10.72
2019-02-14T03:17:42.530Z,10.55
2019-02-14T03:20:12.633Z,10.65
2019-02-14T03:22:41.445Z,10.38
2019-02-14T03:25:19.625Z,10.72
2019-02-14T03:27:49.840Z,10.53
2019-02-14T03:30:18.690Z,11.22
2019-02-14T03:32:47.418Z,11.33
2019-02-14T03:35:16.189Z,9.80
2019-02-14T03:37:44.930Z,10.28
2019-02-14T03:40:14.964Z,10.63
2019-02-14T03:42:43.846Z,11.00
2019-02-14T03:45:18.257Z,11.25
2019-02-14T03:47:47.023Z,10.60
2019-02-14T03:50:15.764Z,10.65
2019-02-14T03:52:44.614Z,10.18
2019-02-14T03:55:13.357Z,10.65
2019-02-14T03:57:42.129Z,11.03
2019-02-14T04:00:31.662Z,11.08
2019-02-14T04:03:00.438Z,10.15
2019-02-14T04:05:29.165Z,9.53
2019-02-14T04:07:57.932Z,10.98
2019-02-14T04:10:26.679Z,10.48
2019-02-14T04:12:55.517Z,11.20
2019-02-14T04:15:24.257Z,11.15
2019-02-14T04:17:53.102Z,9.80
2019-02-14T04:20:21.912Z,10.78
2019-02-14T04:22:50.682Z,10.38
2019-02-14T04:25:19.453Z,10.05
2019-02-14T04:27:48.265Z,10.80
2019-02-14T04:30:17.065Z,11.12
2019-02-14T04:32:45.820Z,10.53
2019-02-14T04:35:15.199Z,10.60
2019-02-14T04:37:43.925Z,10.60
2019-02-14T04:40:13.890Z,10.55
2019-02-14T04:42:42.745Z,10.27
2019-02-14T04:45:12.976Z,10.15
2019-02-14T04:47:42.077Z,10.23
2019-02-14T04:50:11.757Z,10.85
2019-02-14T04:52:40.492Z,10.40
2019-02-14T04:55:10.734Z,10.53
2019-02-14T04:57:39.481Z,10.23
2019-02-14T05:00:13.309Z,9.95
2019-02-14T05:02:42.065Z,10.45
2019-02-14T05:05:11.248Z,10.40
2019-02-14T05:07:40.012Z,9.98
2019-02-14T05:10:10.550Z,10.30
2019-02-14T05:12:39.362Z,8.98
2019-02-14T05:15:09.673Z,9.85
2019-02-14T05:17:38.540Z,9.43
2019-02-14T05:20:11.925Z,9.83
2019-02-14T05:22:42.016Z,9.90
2019-02-14T05:25:11.118Z,9.53
2019-02-14T05:27:39.973Z,10.10
2019-02-14T05:30:14.173Z,9.38
2019-02-14T05:32:42.942Z,9.58
2019-02-14T05:35:11.677Z,10.38
2019-02-14T05:37:40.529Z,10.43
2019-02-14T05:40:11.196Z,9.68
2019-02-14T05:42:40.040Z,10.08
2019-02-14T05:45:12.940Z,10.25
2019-02-14T05:47:41.713Z,9.58
2019-02-14T05:50:12.185Z,10.20
2019-02-14T05:52:41.100Z,9.90
2019-02-14T05:55:11.683Z,9.98
2019-02-14T05:57:40.583Z,9.70
2019-02-14T06:00:14.968Z,11.75
2019-02-14T06:02:43.853Z,12.20
2019-02-14T06:05:12.766Z,10.70
2019-02-14T06:07:41.502Z,11.00
2019-02-14T06:10:12.097Z,13.13
2019-02-14T06:12:40.838Z,14.23
2019-02-14T06:15:11.672Z,14.23
2019-02-14T06:17:40.416Z,13.55
2019-02-14T06:20:11.713Z,13.87
2019-02-14T06:22:41.582Z,13.53
2019-02-14T06:25:11.664Z,13.58
2019-02-14T06:27:40.427Z,13.60
2019-02-14T06:30:14.265Z,13.22
2019-02-14T06:32:43.005Z,13.13
2019-02-14T06:35:34.146Z,13.35
2019-02-14T06:38:02.950Z,11.95
2019-02-14T06:40:31.925Z,12.50
2019-02-14T06:43:00.744Z,12.10
2019-02-14T06:45:29.650Z,12.23
2019-02-14T06:47:58.385Z,11.30
2019-02-14T06:50:34.590Z,13.03
2019-02-14T06:52:57.594Z,12.65
2019-02-14T06:55:27.876Z,12.47
2019-02-14T06:57:56.789Z,11.78
2019-02-14T07:00:25.593Z,11.97
2019-02-14T07:02:54.361Z,12.85
2019-02-14T07:05:25.477Z,12.23
2019-02-14T07:07:55.861Z,12.10
2019-02-14T07:10:24.670Z,12.33
2019-02-14T07:12:53.457Z,12.05
2019-02-14T07:15:22.198Z,11.90
2019-02-14T07:17:51.049Z,12.40
2019-02-14T07:20:19.901Z,11.85
2019-02-14T07:22:48.693Z,11.65
2019-02-14T07:25:17.445Z,11.57
2019-02-14T07:27:46.273Z,10.80
2019-02-14T07:30:20.469Z,10.75
2019-02-14T07:32:49.297Z,11.60
2019-02-14T07:35:18.033Z,10.60
2019-02-14T07:37:46.802Z,10.95
2019-02-14T07:40:15.774Z,11.70
2019-02-14T07:42:44.630Z,10.72
2019-02-14T07:45:19.457Z,11.20
2019-02-14T07:47:48.216Z,10.80
2019-02-14T07:50:16.982Z,10.25
2019-02-14T07:52:45.821Z,10.95
2019-02-14T07:55:15.204Z,9.98
2019-02-14T07:57:45.684Z,10.65
2019-02-14T08:00:16.521Z,10.50
2019-02-14T08:02:45.249Z,10.98
2019-02-14T08:05:14.017Z,11.97
2019-02-14T08:07:42.825Z,11.40
2019-02-14T08:10:14.538Z,11.35
2019-02-14T08:12:43.264Z,11.40
2019-02-14T08:15:13.742Z,10.83
2019-02-14T08:17:42.557Z,10.98
2019-02-14T08:20:19.471Z,10.00
2019-02-14T08:22:48.215Z,9.75
2019-02-14T08:25:16.940Z,9.70
2019-02-14T08:27:45.704Z,10.03
2019-02-14T08:30:16.321Z,10.18
2019-02-14T08:32:45.197Z,9.43
2019-02-14T08:35:13.933Z,9.33
2019-02-14T08:37:45.461Z,9.20
2019-02-14T08:40:22.185Z,9.35
2019-02-14T08:42:51.025Z,8.75
2019-02-14T08:45:19.822Z,8.88
2019-02-14T08:47:48.586Z,8.97
2019-02-14T08:50:17.321Z,8.85
2019-02-14T08:52:46.076Z,7.97
2019-02-14T08:55:14.807Z,8.60
2019-02-14T08:57:45.313Z,7.65
2019-02-14T09:00:15.676Z,7.80
2019-02-14T09:02:44.448Z,8.00
2019-02-14T09:05:13.482Z,7.58
2019-02-14T09:07:42.227Z,7.62
2019-02-14T09:10:13.826Z,7.45
2019-02-14T09:12:42.696Z,7.97
2019-02-14T09:15:13.995Z,7.22
2019-02-14T09:17:42.718Z,7.70
2019-02-14T09:20:14.485Z,7.47
2019-02-14T09:22:43.272Z,8.00
2019-02-14T09:25:12.060Z,7.17
2019-02-14T09:27:40.793Z,6.53
2019-02-14T09:30:12.706Z,6.62
2019-02-14T09:32:41.706Z,6.30
2019-02-14T09:35:11.008Z,5.45
2019-02-14T09:37:39.771Z,5.72
2019-02-14T09:40:19.242Z,5.58
2019-02-14T09:42:47.980Z,5.17
2019-02-14T09:45:16.805Z,5.42
2019-02-14T09:47:45.540Z,5.28
2019-02-14T09:50:18.032Z,5.40
2019-02-14T09:52:46.475Z,5.50
2019-02-14T09:55:15.304Z,5.78
2019-02-14T09:57:44.076Z,5.85
2019-02-14T10:00:19.813Z,5.60
2019-02-14T10:02:48.702Z,5.40
2019-02-14T10:05:17.514Z,5.87
2019-02-14T10:07:46.300Z,5.70
2019-02-14T10:10:17.549Z,6.08
2019-02-14T10:12:46.377Z,5.47
2019-02-14T10:15:15.540Z,5.55
2019-02-14T10:17:44.368Z,5.95
2019-02-14T10:20:17.818Z,5.30
2019-02-14T10:22:46.652Z,6.00
2019-02-14T10:25:15.377Z,5.40
2019-02-14T10:27:44.225Z,5.60
2019-02-14T10:30:15.524Z,5.55
2019-02-14T10:32:44.345Z,6.08
2019-02-14T10:35:13.273Z,6.22
2019-02-14T10:37:42.096Z,5.80
2019-02-14T10:40:13.134Z,5.87
2019-02-14T10:42:41.860Z,5.53
2019-02-14T10:45:21.197Z,5.10
2019-02-14T10:47:49.926Z,4.60
2019-02-14T10:50:18.859Z,5.13
2019-02-14T10:52:47.657Z,4.80
2019-02-14T10:55:16.681Z,4.95
2019-02-14T10:57:45.417Z,4.92
2019-02-14T11:00:17.897Z,4.70
2019-02-14T11:02:47.145Z,5.05
2019-02-14T11:05:16.702Z,4.70
2019-02-14T11:07:45.433Z,4.53
2019-02-14T11:10:15.097Z,4.83
2019-02-14T11:12:43.993Z,4.17
2019-02-14T11:15:18.177Z,4.53
2019-02-14T11:17:48.929Z,4.83
2019-02-14T11:20:18.099Z,4.47
2019-02-14T11:22:48.773Z,4.85
2019-02-14T11:25:32.760Z,5.20
2019-02-14T11:28:01.585Z,5.17
2019-02-14T11:30:30.390Z,4.97
2019-02-14T11:32:59.194Z,4.90
2019-02-14T11:35:28.730Z,4.70
2019-02-14T11:37:57.497Z,3.83
2019-02-14T11:40:26.289Z,3.75
2019-02-14T11:42:56.597Z,4.40
2019-02-14T11:45:26.385Z,4.00
2019-02-14T11:47:55.298Z,3.60
2019-02-14T11:50:24.102Z,3.40
2019-02-14T11:52:53.233Z,4.10
2019-02-14T11:55:21.961Z,3.85
2019-02-14T11:57:50.733Z,3.17
2019-02-14T12:00:25.784Z,3.20
2019-02-14T12:02:55.889Z,3.30
2019-02-14T12:05:25.095Z,3.42
2019-02-14T12:07:53.840Z,2.97
2019-02-14T12:10:22.613Z,3.25
2019-02-14T12:12:51.341Z,3.35
2019-02-14T12:15:20.093Z,2.70
2019-02-14T12:17:48.932Z,2.58
2019-02-14T12:20:17.749Z,2.35
2019-02-14T12:22:47.721Z,2.15
2019-02-14T12:25:22.369Z,2.22
2019-02-14T12:27:51.097Z,2.00
2019-02-14T12:30:19.849Z,2.10
2019-02-14T12:32:49.785Z,2.30
2019-02-14T12:35:18.714Z,2.83
2019-02-14T12:37:47.446Z,3.10
2019-02-14T12:40:16.206Z,2.85
2019-02-14T12:42:44.933Z,3.10
2019-02-14T12:45:21.545Z,2.60
2019-02-14T12:47:50.030Z,3.83
2019-02-14T12:50:18.881Z,3.65
2019-02-14T12:52:47.689Z,3.45
2019-02-14T12:55:16.450Z,3.20
2019-02-14T12:57:45.284Z,3.80
2019-02-14T13:00:17.302Z,3.70
2019-02-14T13:02:46.333Z,3.62
2019-02-14T13:05:15.143Z,4.20
2019-02-14T13:07:43.948Z,4.37
2019-02-14T13:10:19.370Z,4.97
2019-02-14T13:12:48.800Z,4.87
2019-02-14T13:15:23.136Z,4.75
2019-02-14T13:17:51.899Z,4.40
2019-02-14T13:20:20.924Z,4.72
2019-02-14T13:22:49.727Z,4.73
2019-02-14T13:25:18.554Z,4.87
2019-02-14T13:27:47.467Z,5.05
2019-02-14T13:30:18.904Z,5.05
2019-02-14T13:32:47.984Z,4.25
2019-02-14T13:35:17.821Z,4.10
2019-02-14T13:37:46.598Z,4.00
2019-02-14T13:40:15.361Z,3.85
2019-02-14T13:42:44.236Z,3.83
2019-02-14T13:45:15.765Z,4.20
2019-02-14T13:47:44.745Z,3.92
2019-02-14T13:50:15.940Z,3.87
2019-02-14T13:52:44.400Z,3.50
2019-02-14T13:55:13.444Z,3.50
2019-02-14T13:57:42.245Z,3.80
2019-02-14T14:00:19.815Z,3.30
2019-02-14T14:02:48.544Z,3.30
2019-02-14T14:05:17.801Z,3.00
2019-02-14T14:07:46.526Z,3.27
2019-02-14T14:10:15.394Z,2.73
2019-02-14T14:12:44.179Z,2.35
2019-02-14T14:15:13.039Z,2.58
2019-02-14T14:17:41.768Z,2.58
2019-02-14T14:20:10.545Z,2.50
2019-02-14T14:22:39.274Z,2.60
2019-02-14T14:25:11.845Z,2.40
2019-02-14T14:27:40.679Z,2.60
2019-02-14T14:30:13.501Z,3.00
2019-02-14T14:32:42.335Z,2.35
2019-02-14T14:35:12.263Z,2.87
2019-02-14T14:37:41.303Z,2.70
2019-02-14T14:40:20.088Z,2.83
2019-02-14T14:42:52.789Z,2.70
2019-02-14T14:45:23.157Z,2.87
2019-02-14T14:47:51.917Z,3.15
2019-02-14T14:50:20.645Z,3.00
2019-02-14T14:52:49.462Z,2.90
2019-02-14T14:55:18.209Z,3.00
2019-02-14T14:57:47.038Z,3.40
2019-02-14T15:00:15.842Z,3.55
2019-02-14T15:02:44.719Z,3.50
2019-02-14T15:05:13.521Z,3.50
2019-02-14T15:07:42.286Z,3.37
2019-02-14T15:10:11.121Z,3.40
2019-02-14T15:12:39.857Z,2.98
2019-02-14T15:15:08.888Z,3.55
2019-02-14T15:17:37.621Z,3.30
2019-02-14T15:20:12.366Z,4.03
2019-02-14T15:22:41.165Z,3.70
2019-02-14T15:25:09.941Z,4.10
2019-02-14T15:27:38.700Z,3.80
2019-02-14T15:30:07.847Z,3.83
2019-02-14T15:32:36.733Z,3.90
2019-02-14T15:35:07.502Z,3.98
2019-02-14T15:37:37.708Z,3.95
2019-02-14T15:40:09.873Z,3.27
2019-02-14T15:42:39.426Z,3.35
2019-02-14T15:45:08.672Z,3.67
2019-02-14T15:47:37.920Z,3.33
2019-02-14T15:50:08.988Z,3.75
2019-02-14T15:52:38.171Z,3.50
2019-02-14T15:55:11.445Z,3.22
2019-02-14T15:57:42.320Z,3.02
2019-02-14T16:00:13.136Z,3.00
2019-02-14T16:02:41.897Z,3.42
2019-02-14T16:05:10.689Z,3.30
2019-02-14T16:07:41.526Z,3.60
2019-02-14T16:10:18.128Z,3.40
2019-02-14T16:12:42.982Z,3.62
2019-02-14T16:15:11.205Z,3.40
2019-02-14T16:17:40.029Z,4.10
2019-02-14T16:20:10.132Z,3.92
2019-02-14T16:22:40.182Z,3.40
2019-02-14T16:25:09.469Z,3.30
2019-02-14T16:27:38.230Z,3.30
2019-02-14T16:30:09.672Z,3.42
2019-02-14T16:32:38.392Z,3.62
2019-02-14T16:35:08.053Z,3.90
2019-02-14T16:37:36.789Z,3.47
2019-02-14T16:40:08.617Z,3.58
2019-02-14T16:42:37.355Z,3.47
2019-02-14T16:45:08.113Z,3.17
2019-02-14T16:47:36.918Z,3.67
2019-02-14T16:50:08.481Z,3.62
2019-02-14T16:52:37.206Z,3.75
2019-02-14T16:57:26.946Z,3.47
2019-02-14T16:59:55.709Z,3.05
2019-02-14T17:02:24.478Z,3.55
2019-02-14T17:04:53.274Z,3.30
2019-02-14T17:07:22.044Z,3.90
2019-02-14T17:09:50.774Z,3.23
2019-02-14T17:12:19.546Z,3.30
2019-02-14T17:14:48.425Z,3.58
2019-02-14T17:17:17.259Z,3.60
2019-02-14T17:19:45.997Z,4.30
2019-02-14T17:22:14.763Z,3.52
2019-02-14T17:24:45.239Z,3.52
2019-02-14T17:27:13.950Z,3.98
2019-02-14T17:29:42.762Z,4.37
2019-02-14T17:32:11.537Z,4.67
2019-02-14T17:34:40.274Z,6.03
2019-02-14T17:37:09.089Z,4.15
2019-02-14T17:39:37.825Z,3.90
2019-02-14T17:42:06.561Z,6.75
2019-02-14T17:44:35.342Z,5.87
2019-02-14T17:47:04.097Z,4.37
2019-02-14T17:49:33.464Z,4.60
2019-02-14T17:52:02.197Z,5.20
2019-02-14T17:54:31.024Z,4.40
2019-02-14T17:56:59.762Z,5.25
2019-02-14T17:59:28.529Z,5.40
2019-02-14T18:01:57.380Z,5.27
2019-02-14T18:04:27.835Z,6.22
2019-02-14T18:06:56.627Z,6.80
2019-02-14T18:09:25.394Z,6.45
2019-02-14T18:11:55.359Z,6.12
2019-02-14T18:14:24.180Z,6.10
2019-02-14T18:16:53.031Z,6.25
2019-02-14T18:19:23.124Z,7.20
2019-02-14T18:21:51.965Z,6.15
2019-02-14T18:24:20.897Z,7.03
2019-02-14T18:26:49.790Z,6.90
2019-02-14T18:29:18.554Z,7.37
2019-02-14T18:31:47.333Z,7.42
2019-02-14T18:34:16.078Z,8.23
2019-02-14T18:36:44.837Z,8.15
2019-02-14T18:39:13.633Z,9.23
2019-02-14T18:41:42.397Z,8.20
2019-02-14T18:44:12.733Z,8.90
2019-02-14T18:46:41.561Z,10.00
2019-02-14T18:49:13.426Z,8.30
2019-02-14T18:51:43.951Z,8.63
2019-02-14T18:54:12.914Z,8.78
2019-02-14T18:56:41.598Z,8.40
2019-02-14T18:59:12.065Z,9.55
2019-02-14T19:01:42.342Z,9.93
2019-02-14T19:04:11.187Z,9.58
2019-02-14T19:06:39.927Z,9.23
2019-02-14T19:09:09.197Z,8.95
2019-02-14T19:11:38.025Z,9.00
2019-02-14T19:14:06.791Z,8.73
2019-02-14T19:16:35.588Z,8.30
2019-02-14T19:19:04.358Z,8.65
2019-02-14T19:21:33.179Z,9.10
2019-02-14T19:24:01.930Z,8.60
2019-02-14T19:26:30.667Z,8.33
2019-02-14T19:28:59.430Z,8.10
2019-02-14T19:31:28.249Z,8.63
2019-02-14T19:33:57.032Z,8.18
2019-02-14T19:36:25.763Z,8.38
2019-02-14T19:38:54.589Z,8.30
2019-02-14T19:41:25.330Z,8.20
2019-02-14T19:43:53.876Z,8.68
2019-02-14T19:46:22.813Z,8.95
2019-02-14T19:48:51.637Z,9.45
2019-02-14T19:51:21.452Z,9.65
2019-02-14T19:53:50.242Z,10.53
2019-02-14T19:56:19.110Z,9.60
2019-02-14T19:58:47.937Z,9.40
2019-02-14T20:01:16.862Z,9.60
2019-02-14T20:03:46.791Z,8.43
2019-02-14T20:06:17.277Z,9.50
2019-02-14T20:08:46.141Z,9.85
2019-02-14T20:11:14.961Z,11.22
2019-02-14T20:13:49.507Z,10.30
2019-02-14T20:16:14.224Z,10.95
2019-02-14T20:18:43.028Z,11.45
2019-02-14T20:21:11.793Z,11.43
2019-02-14T20:23:40.610Z,11.20
2019-02-14T20:26:09.445Z,11.37
2019-02-14T20:28:38.250Z,10.70
2019-02-14T20:31:07.012Z,11.15
2019-02-14T20:33:35.830Z,11.40
2019-02-14T20:36:04.649Z,11.15
2019-02-14T20:38:33.376Z,10.45
2019-02-14T20:41:02.150Z,11.05
2019-02-14T20:43:30.982Z,12.68
2019-02-14T20:45:59.825Z,11.38
2019-02-14T20:48:28.561Z,12.15
2019-02-14T20:50:57.373Z,12.63
2019-02-14T20:53:26.130Z,12.47
2019-02-14T20:55:54.928Z,12.43
2019-02-14T20:58:23.697Z,12.75
2019-02-14T21:00:52.439Z,13.62
2019-02-14T21:03:21.256Z,13.35
2019-02-14T21:05:49.988Z,14.10
2019-02-14T21:08:18.797Z,13.95
2019-02-14T21:10:47.534Z,13.43
2019-02-14T21:13:16.294Z,12.33
2019-02-14T21:15:45.030Z,14.03
2019-02-14T21:18:13.794Z,13.80
2019-02-14T21:20:42.611Z,15.55
2019-02-14T21:23:11.377Z,14.10
2019-02-14T21:25:40.185Z,15.25
2019-02-14T21:28:08.941Z,15.43
2019-02-14T21:30:37.741Z,13.85
2019-02-14T21:33:06.482Z,14.38
2019-02-14T21:35:35.319Z,14.33
2019-02-14T21:38:04.160Z,14.60
2019-02-14T21:40:33.006Z,14.87
2019-02-14T21:43:01.794Z,16.40
2019-02-14T21:45:30.600Z,15.20
2019-02-14T21:47:59.413Z,16.37
2019-02-14T21:50:28.205Z,16.00
2019-02-14T21:52:56.937Z,16.05
2019-02-14T21:55:25.764Z,16.05
2019-02-14T21:57:54.497Z,15.18
2019-02-14T22:00:27.263Z,14.43
2019-02-14T22:02:58.807Z,14.73
2019-02-14T22:05:27.627Z,17.27
2019-02-14T22:07:57.829Z,16.27
2019-02-14T22:10:26.603Z,16.45
2019-02-14T22:12:55.338Z,15.65
2019-02-14T22:15:28.777Z,15.80
2019-02-14T22:17:57.513Z,16.00
2019-02-14T22:20:26.277Z,15.13
2019-02-14T22:22:55.024Z,15.13
2019-02-14T22:25:23.782Z,14.93
2019-02-14T22:27:52.592Z,15.60
2019-02-14T22:30:21.337Z,14.65
2019-02-14T22:32:50.100Z,15.43
2019-02-14T22:35:18.914Z,15.70
2019-02-14T22:37:47.745Z,15.18
2019-02-14T22:40:18.433Z,15.43
2019-02-14T22:42:47.819Z,14.57
2019-02-14T22:45:16.814Z,14.33
2019-02-14T22:47:45.578Z,14.87
2019-02-14T22:50:14.515Z,13.90
2019-02-14T22:52:43.279Z,14.53
2019-02-14T22:55:13.210Z,14.60
2019-02-14T22:57:41.992Z,14.87
2019-02-14T23:00:33.410Z,14.55
2019-02-14T23:03:02.349Z,13.55
2019-02-14T23:05:31.086Z,14.00
2019-02-14T23:07:59.853Z,13.65
2019-02-14T23:10:28.593Z,14.55
2019-02-14T23:12:57.333Z,12.88
2019-02-14T23:15:26.185Z,13.77
2019-02-14T23:17:55.247Z,13.08
2019-02-14T23:20:24.076Z,13.43
2019-02-14T23:22:52.812Z,13.00
2019-02-14T23:25:21.593Z,13.80
2019-02-14T23:27:50.411Z,12.90
2019-02-14T23:30:19.194Z,12.60
2019-02-14T23:32:47.929Z,12.37
2019-02-14T23:35:16.692Z,14.30
2019-02-14T23:37:45.504Z,15.93
2019-02-14T23:40:14.283Z,13.15
2019-02-14T23:42:43.030Z,12.88
2019-02-14T23:45:11.810Z,14.03
2019-02-14T23:47:40.632Z,14.23
2019-02-14T23:50:10.988Z,14.15
2019-02-14T23:52:39.757Z,13.10
2019-02-14T23:55:09.098Z,12.85
2019-02-14T23:57:37.883Z,12.45
